Time;durP1;ratioP1;P1;durP2;ratioP2;P2;SDS_P1;SDS_P2;PMS_P1;PMS_P2;Temp;Humidity;BMP_temperature;BMP_pressure;BME280_temperature;BME280_humidity;BME280_pressure;Samples;Min_cycle;Max_cycle;Signal;HPM_P1;HPM_P2
2021/06/08 00:01:14;;;;;;;9.03;7.90;;;;;;;14.64;78.95;101516.44;5015378;28;20548;-69
2021/06/08 00:03:39;;;;;;;11.40;8.70;;;;;;;14.59;79.36;101520.34;5015660;28;20166;-69
2021/06/08 00:06:05;;;;;;;9.70;8.70;;;;;;;14.54;79.71;101509.00;5015279;28;20588;-69
2021/06/08 00:08:31;;;;;;;9.50;8.50;;;;;;;14.53;79.74;101512.66;4981419;28;20200;-69
2021/06/08 00:10:56;;;;;;;9.63;8.63;;;;;;;14.44;80.00;101511.34;4996451;28;20592;-69
2021/06/08 00:13:21;;;;;;;9.43;8.27;;;;;;;14.44;80.24;101507.78;5015012;28;20326;-69
2021/06/08 00:15:47;;;;;;;9.70;8.70;;;;;;;14.36;80.75;101510.91;5015252;28;20175;-69
2021/06/08 00:18:12;;;;;;;10.50;8.73;;;;;;;14.38;80.63;101512.53;4997332;28;20181;-69
2021/06/08 00:20:37;;;;;;;8.70;7.87;;;;;;;14.44;80.52;101513.16;4997660;28;20252;-69
2021/06/08 00:23:02;;;;;;;9.97;8.63;;;;;;;14.45;80.34;101515.75;5015075;28;20546;-69
2021/06/08 00:25:28;;;;;;;9.43;8.50;;;;;;;14.36;80.72;101514.44;5015068;28;20196;-69
2021/06/08 00:27:53;;;;;;;11.27;8.13;;;;;;;14.23;81.12;101515.25;5015074;28;20192;-69
2021/06/08 00:30:19;;;;;;;12.20;8.73;;;;;;;14.11;81.53;101519.50;5014802;28;20677;-69
2021/06/08 00:32:44;;;;;;;9.43;8.07;;;;;;;14.04;81.84;101513.59;4997209;28;20541;-69
2021/06/08 00:35:10;;;;;;;9.50;8.50;;;;;;;13.96;82.12;101518.53;4997461;28;20179;-70
2021/06/08 00:37:37;;;;;;;9.20;8.30;;;;;;;13.89;82.43;101524.34;4997069;28;20181;-69
2021/06/08 00:40:04;;;;;;;11.80;8.57;;;;;;;13.82;82.67;101520.28;4997343;28;20199;-69
2021/06/08 00:42:30;;;;;;;10.50;9.50;;;;;;;13.75;83.38;101525.09;4997138;28;20177;-69
2021/06/08 00:44:56;;;;;;;9.80;8.80;;;;;;;13.67;83.84;101524.66;4996803;28;20173;-69
2021/06/08 00:47:21;;;;;;;11.23;9.40;;;;;;;13.62;84.33;101527.59;4996811;28;20183;-69
2021/06/08 00:49:47;;;;;;;12.67;10.27;;;;;;;13.62;84.31;101526.72;5014469;28;20209;-69
2021/06/08 00:52:12;;;;;;;10.67;9.67;;;;;;;13.62;84.87;101527.59;5014437;28;20192;-69
2021/06/08 00:54:38;;;;;;;13.57;9.70;;;;;;;13.63;84.22;101528.47;5014315;28;20173;-69
2021/06/08 00:57:04;;;;;;;11.50;9.83;;;;;;;13.61;84.55;101519.63;5014841;28;20169;-69
2021/06/08 00:59:29;;;;;;;10.83;9.17;;;;;;;13.59;85.14;101526.91;5014077;28;20262;-69
2021/06/08 01:01:54;;;;;;;12.03;9.77;;;;;;;13.61;84.89;101522.31;5014256;28;20179;-69
2021/06/08 01:04:19;;;;;;;11.30;10.03;;;;;;;13.55;85.35;101514.59;5014362;28;20180;-69
2021/06/08 01:06:48;;;;;;;12.23;10.60;;;;;;;13.53;85.41;101524.56;4996999;28;20247;-69
2021/06/08 01:09:13;;;;;;;10.40;9.10;;;;;;;13.63;84.84;101518.59;5014084;28;20765;-69
2021/06/08 01:11:39;;;;;;;12.70;10.40;;;;;;;13.70;85.35;101511.06;4996244;28;20277;-69
2021/06/08 01:14:05;;;;;;;15.80;11.63;;;;;;;13.96;84.13;101512.31;5014202;28;20263;-69
2021/06/08 01:16:31;;;;;;;14.37;11.00;;;;;;;14.02;83.94;101510.13;5014180;28;20704;-69
2021/06/08 01:18:56;;;;;;;12.70;10.30;;;;;;;14.21;82.87;101506.44;4996288;28;20695;-69
2021/06/08 01:21:22;;;;;;;14.20;11.17;;;;;;;14.13;82.86;101508.69;4996033;28;20181;-69
2021/06/08 01:23:47;;;;;;;11.93;10.80;;;;;;;14.09;83.16;101505.28;4996258;28;20664;-69
2021/06/08 01:26:12;;;;;;;14.10;11.03;;;;;;;14.08;83.29;101514.28;5013674;28;20207;-69
2021/06/08 01:28:39;;;;;;;12.27;10.87;;;;;;;14.23;82.42;101507.19;5013810;28;20232;-69
2021/06/08 01:31:08;;;;;;;16.80;11.97;;;;;;;14.15;82.90;101509.47;5013777;28;20191;-70
2021/06/08 01:33:39;;;;;;;14.20;11.73;;;;;;;14.11;83.02;101502.50;5014060;28;20638;-69
2021/06/08 01:36:06;;;;;;;11.77;10.50;;;;;;;14.09;83.19;101511.53;5013836;28;20154;-69
2021/06/08 01:38:31;;;;;;;15.77;12.03;;;;;;;14.16;82.86;101511.19;4996051;28;20193;-69
2021/06/08 01:40:56;;;;;;;11.40;10.20;;;;;;;14.20;81.96;101507.38;4996061;28;20561;-69
2021/06/08 01:43:22;;;;;;;14.37;11.47;;;;;;;14.21;81.96;101511.78;4995962;28;20247;-69
2021/06/08 01:46:02;;;;;;;13.97;10.90;;;;;;;14.08;82.29;101512.47;4942443;28;20237;-69
2021/06/08 01:51:19;;;;;;;16.67;11.13;;;;;;;14.14;83.05;101510.44;5034372;22;20262;-71
2021/06/08 01:54:21;;;;;;;12.23;10.70;;;;;;;14.17;82.05;101507.56;4980058;28;20660;-71
2021/06/08 01:56:52;;;;;;;11.47;10.03;;;;;;;14.08;81.85;101520.53;5013650;28;20180;-71
2021/06/08 01:59:38;;;;;;;11.53;10.30;;;;;;;14.00;82.03;101514.72;4995706;28;20192;-72
2021/06/08 02:02:24;;;;;;;12.23;10.00;;;;;;;13.92;82.41;101514.31;5013577;28;20248;-71
2021/06/08 02:05:05;;;;;;;13.93;10.33;;;;;;;13.94;82.57;101516.91;4995717;28;20161;-71
2021/06/08 02:07:41;;;;;;;14.77;11.30;;;;;;;13.74;83.25;101508.13;4995890;28;20169;-71
2021/06/08 02:10:38;;;;;;;13.33;10.93;;;;;;;13.76;83.03;101516.13;4995984;28;20537;-71
2021/06/08 02:13:11;;;;;;;14.90;11.03;;;;;;;13.80;83.60;101504.28;4995440;28;20259;-72
2021/06/08 02:15:40;;;;;;;11.40;10.30;;;;;;;13.73;83.62;101506.41;4995961;28;20260;-71
2021/06/08 02:18:08;;;;;;;15.33;10.97;;;;;;;13.66;83.59;101514.88;4995811;28;20637;-71
2021/06/08 02:20:35;;;;;;;12.20;10.93;;;;;;;13.65;84.15;101511.31;4995731;28;20692;-72
2021/06/08 02:23:06;;;;;;;13.97;11.93;;;;;;;13.75;83.61;101512.56;4979281;28;20239;-72
2021/06/08 02:25:32;;;;;;;13.40;12.00;;;;;;;13.85;83.35;101506.69;4979302;28;20216;-71
2021/06/08 02:28:00;;;;;;;13.30;11.90;;;;;;;13.91;83.15;101512.56;4995511;28;20315;-71
2021/06/08 02:30:26;;;;;;;15.57;11.90;;;;;;;13.92;82.75;101508.06;4995455;28;20247;-71
2021/06/08 02:32:54;;;;;;;18.40;13.13;;;;;;;13.86;83.57;101509.28;4995675;28;20559;-71
2021/06/08 02:35:20;;;;;;;13.43;11.53;;;;;;;13.90;83.27;101509.97;4999479;28;20732;-71
2021/06/08 02:37:46;;;;;;;15.00;11.83;;;;;;;13.89;83.03;101506.44;4999387;28;20537;-71
2021/06/08 02:40:13;;;;;;;14.10;11.80;;;;;;;13.96;83.51;101510.50;4999257;28;20200;-71
2021/06/08 02:42:38;;;;;;;13.73;12.33;;;;;;;14.04;83.22;101518.97;4983079;28;20188;-71
2021/06/08 02:45:05;;;;;;;13.10;11.30;;;;;;;13.96;83.58;101520.38;4999200;28;20608;-72
2021/06/08 02:47:31;;;;;;;13.30;11.47;;;;;;;13.96;82.81;101526.59;5016690;28;20736;-71
2021/06/08 02:49:58;;;;;;;19.77;12.00;;;;;;;13.89;83.34;101527.03;4999164;28;20688;-71
2021/06/08 02:52:24;;;;;;;20.60;12.63;;;;;;;13.84;83.53;101524.59;4999176;28;20172;-73
2021/06/08 02:54:51;;;;;;;14.47;12.13;;;;;;;13.81;83.61;101524.78;4999383;28;20201;-71
2021/06/08 02:57:18;;;;;;;15.40;11.97;;;;;;;13.81;83.94;101529.28;4982881;28;20177;-71
2021/06/08 02:59:45;;;;;;;12.67;11.03;;;;;;;13.77;83.50;101523.22;4982932;28;20200;-71
2021/06/08 03:02:12;;;;;;;13.13;11.73;;;;;;;13.80;83.22;101530.22;4999381;28;20268;-71
2021/06/08 03:04:44;;;;;;;13.67;11.43;;;;;;;13.79;83.83;101528.50;4999201;28;20173;-72
2021/06/08 03:07:10;;;;;;;13.10;11.43;;;;;;;13.77;83.86;101525.91;4999150;28;20191;-72
2021/06/08 03:09:43;;;;;;;15.70;11.97;;;;;;;13.72;84.14;101536.00;5016416;28;20291;-72
2021/06/08 03:12:13;;;;;;;18.67;11.17;;;;;;;13.75;83.99;101533.13;4982777;28;20165;-72
2021/06/08 03:14:42;;;;;;;15.47;12.17;;;;;;;13.73;83.88;101537.72;5001972;28;20173;-73
2021/06/08 03:17:08;;;;;;;11.60;10.40;;;;;;;13.76;84.28;101535.78;5022052;28;20169;-73
2021/06/08 03:19:35;;;;;;;17.00;11.70;;;;;;;13.80;84.00;101536.47;5005913;28;20224;-73
2021/06/08 03:22:03;;;;;;;15.57;11.37;;;;;;;13.86;84.20;101537.94;5007468;28;20267;-72
2021/06/08 03:24:31;;;;;;;15.10;10.70;;;;;;;13.98;83.38;101543.47;5004732;28;20179;-71
2021/06/08 03:26:57;;;;;;;16.50;10.87;;;;;;;13.99;83.80;101542.53;5005193;28;20189;-73
2021/06/08 03:29:23;;;;;;;13.43;10.63;;;;;;;14.03;83.85;101541.41;4987633;28;20196;-73
2021/06/08 03:31:49;;;;;;;16.43;10.50;;;;;;;14.13;83.57;101543.59;5000547;28;20177;-73
2021/06/08 03:34:16;;;;;;;13.77;10.53;;;;;;;14.12;83.08;101545.38;4998603;28;20283;-73
2021/06/08 03:36:47;;;;;;;12.10;10.87;;;;;;;14.11;83.03;101548.16;4998977;28;20622;-72
2021/06/08 03:39:13;;;;;;;12.97;10.13;;;;;;;14.04;83.40;101545.81;4982198;28;20201;-73
2021/06/08 03:41:39;;;;;;;12.07;10.03;;;;;;;14.04;83.09;101543.13;4998389;28;20188;-73
2021/06/08 03:44:05;;;;;;;14.63;11.03;;;;;;;14.07;82.74;101542.94;4997996;28;20184;-73
2021/06/08 03:46:31;;;;;;;14.67;11.03;;;;;;;14.12;83.15;101542.69;4998292;28;20292;-73
2021/06/08 03:48:59;;;;;;;11.70;10.50;;;;;;;14.20;82.47;101543.16;4997896;28;20184;-72
2021/06/08 03:51:32;;;;;;;12.57;10.73;;;;;;;14.22;82.23;101549.28;4998695;28;20188;-73
2021/06/08 03:53:58;;;;;;;15.13;11.27;;;;;;;14.25;82.00;101542.88;4998066;28;20176;-72
2021/06/08 03:56:24;;;;;;;13.53;10.63;;;;;;;14.27;82.21;101536.47;4981858;28;20187;-72
2021/06/08 03:58:50;;;;;;;15.93;10.97;;;;;;;14.31;82.37;101538.03;4997968;28;20283;-73
2021/06/08 04:01:16;;;;;;;12.67;11.23;;;;;;;14.25;82.40;101548.25;4998095;28;20266;-72
2021/06/08 04:03:42;;;;;;;12.53;10.30;;;;;;;14.34;81.94;101547.72;4998034;28;20637;-72
2021/06/08 04:06:08;;;;;;;14.13;10.23;;;;;;;14.42;81.89;101548.13;4997758;28;20197;-71
2021/06/08 04:08:33;;;;;;;10.87;9.77;;;;;;;14.45;81.72;101549.81;4997918;28;20172;-72
2021/06/08 04:10:58;;;;;;;12.97;10.27;;;;;;;14.53;81.05;101545.75;4997764;28;20193;-71
2021/06/08 04:13:24;;;;;;;10.87;9.87;;;;;;;14.58;81.04;101540.97;4998229;28;20660;-70
2021/06/08 04:15:49;;;;;;;11.53;9.83;;;;;;;14.73;80.41;101543.72;5011438;28;20176;-70
2021/06/08 04:18:15;;;;;;;14.90;10.37;;;;;;;14.75;80.18;101549.84;5013597;28;20177;-72
2021/06/08 04:20:41;;;;;;;11.90;10.03;;;;;;;14.81;79.42;101546.81;5029034;28;20192;-71
2021/06/08 04:23:06;;;;;;;12.60;8.77;;;;;;;14.85;79.58;101545.66;5004517;28;20251;-72
2021/06/08 04:25:32;;;;;;;10.60;9.17;;;;;;;15.02;79.05;101543.72;4981190;28;20228;-72
2021/06/08 04:27:57;;;;;;;11.33;8.60;;;;;;;15.19;78.01;101542.66;4997434;28;20553;-71
2021/06/08 04:30:23;;;;;;;11.60;8.20;;;;;;;15.24;77.69;101540.59;4997283;28;20192;-71
2021/06/08 04:32:49;;;;;;;9.13;7.93;;;;;;;15.23;77.68;101538.84;4997260;28;20176;-70
2021/06/08 04:35:16;;;;;;;10.67;8.73;;;;;;;15.33;77.37;101545.41;5015061;28;20175;-71
2021/06/08 04:37:41;;;;;;;9.67;8.40;;;;;;;15.29;77.11;101554.63;4997226;28;20708;-71
2021/06/08 04:40:08;;;;;;;11.97;8.20;;;;;;;15.45;77.10;101554.53;4980733;28;20287;-71
2021/06/08 04:42:39;;;;;;;11.23;8.40;;;;;;;15.49;76.58;101556.06;5014696;28;20180;-71
2021/06/08 04:45:05;;;;;;;10.20;8.50;;;;;;;15.52;76.49;101557.69;4996872;28;20165;-71
2021/06/08 04:47:30;;;;;;;9.57;8.07;;;;;;;15.72;75.43;101565.44;4997679;28;20181;-72
2021/06/08 04:49:55;;;;;;;9.97;8.30;;;;;;;15.69;75.86;101559.38;5014123;28;20709;-71
2021/06/08 04:52:21;;;;;;;9.27;7.87;;;;;;;15.76;75.47;101552.66;4997217;28;20637;-71
2021/06/08 04:54:46;;;;;;;12.87;8.50;;;;;;;15.82;75.06;101563.03;4980356;28;20267;-71
2021/06/08 04:57:13;;;;;;;9.63;8.27;;;;;;;15.88;75.47;101563.50;5013899;28;20539;-68
2021/06/08 04:59:45;;;;;;;11.70;7.90;;;;;;;16.14;74.34;101567.22;4996524;28;20189;-68
2021/06/08 05:02:38;;;;;;;11.67;7.50;;;;;;;16.32;73.86;101566.97;4996724;28;20561;-68
2021/06/08 05:05:27;;;;;;;10.77;8.20;;;;;;;16.48;73.53;101567.72;4996661;28;20157;-68
2021/06/08 05:08:11;;;;;;;9.17;7.93;;;;;;;16.56;73.10;101571.63;4996534;28;20622;-68
2021/06/08 05:10:40;;;;;;;9.67;7.87;;;;;;;16.49;72.60;101570.31;5013961;28;20242;-68
2021/06/08 05:13:09;;;;;;;12.77;8.57;;;;;;;16.46;73.14;101575.91;4996558;28;20173;-67
2021/06/08 05:15:35;;;;;;;11.80;8.53;;;;;;;16.65;72.85;101580.06;4997006;28;20168;-67
2021/06/08 05:18:01;;;;;;;12.67;7.77;;;;;;;16.82;72.72;101579.84;4996273;28;20181;-68
2021/06/08 05:20:26;;;;;;;15.00;7.73;;;;;;;16.92;72.17;101572.88;4996513;28;20197;-68
2021/06/08 05:22:54;;;;;;;10.03;8.10;;;;;;;16.73;72.80;101585.88;4996423;28;20223;-64
2021/06/08 05:25:19;;;;;;;9.00;7.80;;;;;;;17.08;71.61;101570.84;4996471;28;20189;-64
2021/06/08 05:27:46;;;;;;;8.13;7.33;;;;;;;17.34;70.71;101570.88;4996145;28;20176;-64
2021/06/08 05:30:12;;;;;;;11.13;7.33;;;;;;;17.54;69.34;101574.91;4996106;28;20557;-64
2021/06/08 05:32:38;;;;;;;7.23;6.53;;;;;;;17.64;69.04;101565.16;4995990;28;20208;-63
2021/06/08 05:35:06;;;;;;;9.67;7.37;;;;;;;17.75;69.05;101568.84;5013625;28;20204;-64
2021/06/08 05:37:35;;;;;;;7.83;6.33;;;;;;;17.88;68.27;101563.47;4996069;28;20180;-64
2021/06/08 05:40:00;;;;;;;7.90;6.37;;;;;;;18.13;68.19;101573.34;5013742;28;20189;-63
2021/06/08 05:42:26;;;;;;;7.77;6.10;;;;;;;18.24;66.44;101576.13;5013666;28;20176;-64
2021/06/08 05:44:52;;;;;;;9.37;6.23;;;;;;;18.22;66.86;101582.63;4996027;28;20180;-70
2021/06/08 05:47:17;;;;;;;7.10;5.80;;;;;;;18.27;67.05;101580.44;4995759;28;20600;-70
2021/06/08 05:49:43;;;;;;;8.40;6.00;;;;;;;18.58;65.94;101573.63;4995849;28;20212;-70
2021/06/08 05:52:10;;;;;;;6.40;5.80;;;;;;;18.73;65.97;101578.78;5013673;28;20225;-70
2021/06/08 05:54:35;;;;;;;5.87;5.17;;;;;;;18.75;66.35;101584.06;4979549;28;20211;-70
2021/06/08 05:57:01;;;;;;;7.33;5.33;;;;;;;19.01;64.76;101582.09;4996201;28;20196;-70
2021/06/08 05:59:27;;;;;;;9.00;5.17;;;;;;;18.96;63.59;101579.75;4995804;28;20193;-70
2021/06/08 06:01:52;;;;;;;8.70;5.43;;;;;;;18.80;64.37;101589.13;4995675;28;20179;-70
2021/06/08 06:04:20;;;;;;;7.43;5.30;;;;;;;18.73;64.17;101592.31;4995864;28;20207;-70
2021/06/08 06:06:46;;;;;;;6.20;5.00;;;;;;;18.66;65.00;101592.88;4996023;28;20685;-70
2021/06/08 06:09:14;;;;;;;8.50;4.80;;;;;;;18.84;64.79;101586.06;4996325;28;20223;-71
2021/06/08 06:11:40;;;;;;;6.30;5.17;;;;;;;18.83;65.12;101589.75;4995710;28;20594;-70
2021/06/08 06:14:06;;;;;;;5.47;4.83;;;;;;;18.84;65.36;101588.78;4995831;28;20641;-70
2021/06/08 06:16:36;;;;;;;6.73;4.60;;;;;;;19.01;64.84;101592.94;4995767;28;20223;-71
2021/06/08 06:19:04;;;;;;;6.23;4.47;;;;;;;19.19;63.57;101591.50;4979847;28;20189;-71
2021/06/08 06:21:30;;;;;;;7.13;5.10;;;;;;;19.38;63.73;101588.25;5013114;28;20179;-71
2021/06/08 06:23:55;;;;;;;7.40;5.00;;;;;;;19.50;63.30;101589.97;4995678;28;20534;-71
2021/06/08 06:26:24;;;;;;;5.47;4.40;;;;;;;19.60;62.70;101593.72;5013347;28;20200;-70
2021/06/08 06:28:49;;;;;;;6.63;4.73;;;;;;;19.62;61.09;101589.03;4995663;28;20548;-70
2021/06/08 06:31:15;;;;;;;4.70;4.30;;;;;;;19.33;61.47;101585.91;4995457;28;20181;-70
2021/06/08 06:33:42;;;;;;;5.63;4.50;;;;;;;19.18;62.93;101588.91;4995648;28;20192;-70
2021/06/08 06:36:08;;;;;;;8.47;4.70;;;;;;;19.19;63.07;101590.63;4979215;28;20173;-71
2021/06/08 06:38:34;;;;;;;9.33;4.63;;;;;;;19.24;62.28;101583.03;4995772;28;20181;-71
2021/06/08 06:41:02;;;;;;;8.23;5.37;;;;;;;19.04;63.44;101588.16;4995865;28;20292;-70
2021/06/08 06:43:28;;;;;;;6.00;4.40;;;;;;;19.20;63.36;101592.38;4979015;28;20173;-71
2021/06/08 06:45:54;;;;;;;7.63;5.07;;;;;;;19.09;62.89;101589.63;4978886;28;20235;-69
2021/06/08 06:48:19;;;;;;;8.97;5.13;;;;;;;19.01;63.14;101593.78;5013175;28;20642;-68
2021/06/08 06:50:46;;;;;;;7.30;5.10;;;;;;;18.95;63.92;101587.97;4995517;28;20201;-71
2021/06/08 06:53:18;;;;;;;5.40;4.40;;;;;;;19.31;62.88;101587.84;4995648;28;20169;-70
2021/06/08 06:55:47;;;;;;;9.87;4.70;;;;;;;19.05;62.63;101599.81;5013299;28;20153;-69
2021/06/08 06:58:12;;;;;;;8.03;4.40;;;;;;;19.12;63.04;101600.22;4979259;28;20264;-70
2021/06/08 07:00:38;;;;;;;6.40;5.33;;;;;;;19.05;62.59;101595.28;4995477;28;20271;-70
2021/06/08 07:03:04;;;;;;;5.67;5.00;;;;;;;19.08;63.22;101596.03;4995525;28;20638;-70
2021/06/08 07:05:30;;;;;;;5.17;4.17;;;;;;;19.16;62.83;101605.28;4995516;28;20189;-70
2021/06/08 07:07:56;;;;;;;6.80;4.83;;;;;;;19.18;62.31;101607.84;4995377;28;20169;-70
2021/06/08 07:10:25;;;;;;;5.47;4.63;;;;;;;19.04;62.86;101604.38;4995206;28;20732;-70
2021/06/08 07:12:51;;;;;;;6.77;4.70;;;;;;;19.13;62.65;101601.94;4995316;28;20208;-70
2021/06/08 07:15:22;;;;;;;8.07;4.73;;;;;;;19.44;61.95;101609.41;4995652;28;20169;-70
2021/06/08 07:17:48;;;;;;;7.67;4.90;;;;;;;19.40;61.76;101607.94;4978930;28;20169;-70
2021/06/08 07:20:16;;;;;;;7.27;4.37;;;;;;;19.51;61.60;101609.78;5015020;28;20288;-70
2021/06/08 07:22:43;;;;;;;5.90;4.13;;;;;;;19.30;63.98;101617.72;4999333;28;20173;-70
2021/06/08 07:25:09;;;;;;;4.90;4.07;;;;;;;19.64;61.02;101613.28;4998628;28;20173;-70
2021/06/08 07:27:35;;;;;;;7.83;4.80;;;;;;;19.65;60.61;101612.31;4998611;28;20223;-70
2021/06/08 07:30:00;;;;;;;5.70;4.40;;;;;;;19.61;59.35;101608.13;5015958;28;20201;-70
2021/06/08 07:32:35;;;;;;;5.57;4.40;;;;;;;19.68;59.42;101615.63;5016279;28;20204;-70
2021/06/08 07:35:23;;;;;;;6.00;3.90;;;;;;;19.86;59.57;101618.75;4998318;28;20647;-69
2021/06/08 07:37:49;;;;;;;4.60;3.37;;;;;;;19.97;59.70;101617.88;4998824;28;20169;-70
2021/06/08 07:40:22;;;;;;;3.43;2.93;;;;;;;20.28;56.46;101622.56;4982298;28;20197;-72
2021/06/08 07:42:50;;;;;;;7.33;3.57;;;;;;;20.29;54.92;101610.72;4998437;28;20652;-70
2021/06/08 07:45:19;;;;;;;4.63;3.30;;;;;;;20.43;53.12;101608.75;4998340;28;20608;-70
2021/06/08 07:47:48;;;;;;;3.77;3.10;;;;;;;20.38;53.92;101617.25;4998106;28;20172;-69
2021/06/08 07:50:14;;;;;;;5.77;3.10;;;;;;;20.56;53.96;101613.06;5019931;23;20231;-70
2021/06/08 07:52:40;;;;;;;5.77;3.30;;;;;;;20.49;53.64;101617.28;5039120;28;20275;-72
2021/06/08 07:55:06;;;;;;;4.80;3.40;;;;;;;20.58;53.55;101615.66;5021720;28;20175;-71
2021/06/08 07:57:32;;;;;;;4.03;3.37;;;;;;;20.82;52.64;101612.75;5056080;28;20203;-71
2021/06/08 07:59:57;;;;;;;6.13;3.17;;;;;;;20.79;52.90;101615.69;5030904;28;20665;-71
2021/06/08 08:02:24;;;;;;;6.20;2.80;;;;;;;20.81;52.87;101621.84;5018549;28;20228;-72
2021/06/08 08:04:50;;;;;;;5.37;3.00;;;;;;;20.82;52.71;101613.63;5003087;28;20394;-71
2021/06/08 08:07:24;;;;;;;5.93;3.17;;;;;;;20.77;51.56;101621.25;5038593;28;20338;-71
2021/06/08 08:09:50;;;;;;;4.03;2.97;;;;;;;20.77;51.60;101612.25;5020894;28;20222;-70
2021/06/08 08:12:16;;;;;;;3.87;2.83;;;;;;;20.81;51.88;101617.31;5020037;28;20180;-72
2021/06/08 08:14:43;;;;;;;6.00;3.10;;;;;;;20.73;51.44;101608.06;5003726;28;20277;-72
2021/06/08 08:17:09;;;;;;;4.27;3.20;;;;;;;20.56;52.14;101612.19;5018184;28;20218;-72
2021/06/08 08:19:35;;;;;;;5.63;3.00;;;;;;;20.62;52.61;101611.69;5018490;28;20243;-72
2021/06/08 08:22:00;;;;;;;3.00;2.80;;;;;;;20.98;52.19;101615.03;5019127;28;20192;-72
2021/06/08 08:24:25;;;;;;;6.03;2.93;;;;;;;21.09;51.86;101615.84;5019049;28;20181;-72
2021/06/08 08:26:51;;;;;;;7.73;3.20;;;;;;;21.02;51.12;101620.06;5001455;28;20668;-70
2021/06/08 08:29:16;;;;;;;3.13;2.60;;;;;;;21.26;50.60;101628.03;5002534;28;20176;-72
2021/06/08 08:31:42;;;;;;;3.53;2.37;;;;;;;21.57;50.95;101617.25;5018567;28;20172;-70
2021/06/08 08:34:07;;;;;;;2.60;2.40;;;;;;;21.56;49.71;101615.50;5017479;28;20191;-71
2021/06/08 08:36:36;;;;;;;3.20;2.73;;;;;;;21.69;49.53;101616.16;5017778;28;20184;-70
2021/06/08 08:39:03;;;;;;;3.53;2.57;;;;;;;21.43;49.02;101623.84;5018272;28;20766;-71
2021/06/08 08:41:28;;;;;;;3.33;2.40;;;;;;;21.50;49.87;101612.31;5002380;28;20576;-72
2021/06/08 08:43:54;;;;;;;3.97;2.60;;;;;;;21.81;49.15;101623.22;5035087;28;20180;-70
2021/06/08 08:46:20;;;;;;;3.83;2.50;;;;;;;22.12;45.93;101627.72;5000667;28;20196;-72
2021/06/08 08:48:47;;;;;;;6.00;2.70;;;;;;;22.12;46.12;101622.28;5017744;28;20176;-72
2021/06/08 08:51:15;;;;;;;5.40;2.50;;;;;;;22.01;46.79;101619.63;5001255;28;20258;-73
2021/06/08 08:53:42;;;;;;;5.40;2.40;;;;;;;22.48;46.15;101621.81;5018078;28;20572;-73
2021/06/08 08:56:07;;;;;;;5.17;2.60;;;;;;;22.61;45.49;101619.69;5018786;28;20182;-73
2021/06/08 08:58:33;;;;;;;2.80;2.50;;;;;;;22.62;44.91;101629.56;5018747;28;20641;-71
2021/06/08 09:01:00;;;;;;;2.83;2.40;;;;;;;22.99;44.30;101630.66;5001980;28;20673;-72
2021/06/08 09:03:25;;;;;;;4.30;2.10;;;;;;;23.14;42.55;101630.25;5019446;28;20185;-71
2021/06/08 09:05:55;;;;;;;3.37;2.30;;;;;;;22.65;43.60;101623.84;5000200;28;20660;-70
2021/06/08 09:08:20;;;;;;;3.07;2.40;;;;;;;22.39;44.79;101618.94;5018125;28;20179;-72
2021/06/08 09:10:47;;;;;;;3.00;2.47;;;;;;;22.36;45.69;101615.63;5020062;28;20199;-72
2021/06/08 09:13:12;;;;;;;2.77;2.30;;;;;;;22.43;42.88;101605.94;5018124;28;20172;-71
2021/06/08 09:15:38;;;;;;;2.30;2.10;;;;;;;22.58;43.62;101620.84;5000775;28;20191;-71
2021/06/08 09:18:03;;;;;;;3.20;2.20;;;;;;;22.76;41.71;101618.31;5000981;28;20595;-72
2021/06/08 09:20:29;;;;;;;9.33;2.20;;;;;;;22.73;42.02;101619.44;5034165;28;20275;-71
2021/06/08 09:23:06;;;;;;;7.70;2.40;;;;;;;22.39;42.64;101613.50;5016370;28;20698;-71
2021/06/08 09:25:34;;;;;;;2.77;2.20;;;;;;;22.60;43.16;101616.13;5016293;28;20188;-70
2021/06/08 09:28:12;;;;;;;2.03;1.90;;;;;;;22.84;42.81;101614.91;5016786;28;20180;-72
2021/06/08 09:30:38;;;;;;;4.00;2.53;;;;;;;22.69;43.52;101619.88;5016842;28;20191;-71
2021/06/08 09:33:18;;;;;;;5.57;2.53;;;;;;;22.49;43.38;101618.97;5016387;28;20525;-71
2021/06/08 09:36:06;;;;;;;3.27;2.20;;;;;;;22.93;42.74;101620.34;5016771;28;20655;-72
2021/06/08 09:38:58;;;;;;;2.97;2.50;;;;;;;22.55;44.70;101612.97;5036914;28;20183;-71
2021/06/08 09:41:26;;;;;;;4.23;2.00;;;;;;;23.21;42.92;101610.47;4999875;28;20211;-73
2021/06/08 09:44:15;;;;;;;4.63;2.30;;;;;;;22.87;43.13;101620.91;5015763;28;20172;-71
2021/06/08 09:46:54;;;;;;;2.20;2.00;;;;;;;22.66;45.00;101612.81;5000355;28;20231;-71
2021/06/08 09:49:35;;;;;;;3.57;2.20;;;;;;;22.32;46.25;101611.47;5000593;28;20547;-72
2021/06/08 09:52:08;;;;;;;4.40;2.50;;;;;;;22.60;45.28;101616.13;4999869;28;20260;-72
2021/06/08 09:54:37;;;;;;;5.23;2.30;;;;;;;22.67;45.45;101609.13;5016122;28;20183;-72
2021/06/08 09:57:28;;;;;;;5.30;2.60;;;;;;;22.80;44.73;101614.31;5018973;28;20173;-73
2021/06/08 09:59:58;;;;;;;5.70;2.43;;;;;;;22.55;45.80;101606.66;5017548;28;20696;-73
2021/06/08 10:02:32;;;;;;;2.90;2.40;;;;;;;22.54;44.77;101608.53;5019072;28;20156;-71
2021/06/08 10:05:27;;;;;;;4.17;2.40;;;;;;;22.64;45.23;101614.81;5001456;28;20168;-73
2021/06/08 10:07:59;;;;;;;3.00;2.33;;;;;;;23.39;44.26;101608.72;5001963;28;20196;-72
2021/06/08 10:10:39;;;;;;;3.53;2.20;;;;;;;23.32;43.49;101606.72;5034751;28;20195;-72
2021/06/08 10:13:07;;;;;;;3.00;2.27;;;;;;;23.29;43.05;101607.88;5017474;28;20164;-73
2021/06/08 10:15:42;;;;;;;3.10;2.20;;;;;;;23.49;42.39;101605.16;5016967;28;20219;-72
2021/06/08 10:18:09;;;;;;;3.73;2.30;;;;;;;23.13;42.01;101613.06;5035062;28;20619;-71
2021/06/08 10:20:36;;;;;;;5.43;2.20;;;;;;;23.40;41.66;101613.16;4999351;28;20595;-71
2021/06/08 10:23:43;;;;;;;4.40;2.63;;;;;;;23.97;41.57;101614.06;5016374;28;20221;-73
2021/06/08 10:26:11;;;;;;;3.23;2.10;;;;;;;23.49;40.30;101607.88;5012059;28;20770;-71
2021/06/08 10:28:37;;;;;;;2.80;2.17;;;;;;;23.15;40.38;101602.88;5017095;28;20187;-71
2021/06/08 10:31:03;;;;;;;6.27;2.40;;;;;;;23.03;41.41;101601.28;5016601;28;20200;-71
2021/06/08 10:33:29;;;;;;;5.40;2.20;;;;;;;23.04;42.12;101603.91;5016793;28;20211;-72
2021/06/08 10:35:55;;;;;;;2.43;2.23;;;;;;;23.26;41.91;101600.00;5016009;28;20204;-72
2021/06/08 10:38:20;;;;;;;4.33;2.40;;;;;;;23.63;40.83;101599.25;5033883;28;20279;-73
2021/06/08 10:40:50;;;;;;;2.63;2.17;;;;;;;24.21;39.45;101608.09;4999422;28;20587;-72
2021/06/08 10:43:18;;;;;;;4.80;2.37;;;;;;;24.16;41.40;101606.81;5017463;28;20173;-72
2021/06/08 10:45:44;;;;;;;3.70;2.40;;;;;;;23.48;40.68;101595.25;5017181;28;20564;-72
2021/06/08 10:48:19;;;;;;;4.23;2.70;;;;;;;23.84;41.38;101609.97;5017564;28;20587;-71
2021/06/08 10:50:49;;;;;;;4.27;2.70;;;;;;;24.59;40.23;101615.25;5019272;28;20211;-72
2021/06/08 10:53:35;;;;;;;3.63;2.13;;;;;;;24.20;38.31;101602.78;5019860;28;20525;-73
2021/06/08 10:56:00;;;;;;;5.37;2.30;;;;;;;24.27;38.62;101607.53;5019255;28;20160;-73
2021/06/08 10:58:43;;;;;;;5.90;2.43;;;;;;;23.93;39.71;101609.94;5019872;28;20315;-71
2021/06/08 11:01:30;;;;;;;3.90;3.23;;;;;;;24.90;37.13;101612.13;5019865;28;20196;-72
2021/06/08 11:03:56;;;;;;;3.20;2.10;;;;;;;26.85;35.00;101613.41;5037039;28;20172;-73
2021/06/08 11:06:36;;;;;;;6.60;3.93;;;;;;;28.58;31.50;101613.84;5019330;28;20189;-72
2021/06/08 11:09:14;;;;;;;6.43;2.33;;;;;;;29.25;31.21;101612.22;5037797;28;20608;-70
2021/06/08 11:11:47;;;;;;;4.05;2.05;;;;;;;30.65;28.50;101616.09;5038093;28;20651;-73
2021/06/08 11:14:44;;;;;;;4.13;2.10;;;;;;;31.77;27.98;101608.06;5019264;28;20203;-72
2021/06/08 11:17:19;;;;;;;4.80;2.17;;;;;;;31.08;29.31;101610.59;5019444;28;20199;-72
2021/06/08 11:19:50;;;;;;;5.18;2.10;;;;;;;31.67;26.50;101604.78;5037306;28;20282;-72
2021/06/08 11:22:17;;;;;;;2.67;1.60;;;;;;;32.78;25.31;101613.91;5037154;28;20190;-72
2021/06/08 11:24:45;;;;;;;2.83;1.80;;;;;;;30.76;25.88;101595.44;5019352;28;20575;-72
2021/06/08 11:27:11;;;;;;;3.30;1.95;;;;;;;31.21;26.37;101605.25;5023100;28;20196;-72
2021/06/08 11:29:45;;;;;;;2.75;1.80;;;;;;;29.47;28.31;101602.28;5019235;28;20611;-72